createdAt,value
2019-04-16T00:00:28.724Z,1003.81
2019-04-16T00:01:28.709Z,1003.73
2019-04-16T00:02:28.720Z,1003.76
2019-04-16T00:03:28.689Z,1003.78
2019-04-16T00:04:28.682Z,1003.72
2019-04-16T00:05:28.669Z,1003.79
2019-04-16T00:06:28.668Z,1003.68
2019-04-16T00:07:28.674Z,1003.74
2019-04-16T00:08:28.644Z,1003.71
2019-04-16T00:09:28.626Z,1003.69
2019-04-16T00:10:28.613Z,1003.71
2019-04-16T00:11:28.607Z,1003.56
2019-04-16T00:12:28.637Z,1003.63
2019-04-16T00:13:28.587Z,1003.59
2019-04-16T00:14:28.587Z,1003.59
2019-04-16T00:15:28.562Z,1003.58
2019-04-16T00:16:28.551Z,1003.64
2019-04-16T00:17:28.543Z,1003.51
2019-04-16T00:18:28.559Z,1003.52
2019-04-16T00:19:28.523Z,1003.51
2019-04-16T00:20:28.520Z,1003.57
2019-04-16T00:21:28.506Z,1003.59
2019-04-16T00:22:28.486Z,1003.53
2019-04-16T00:23:28.521Z,1003.52
2019-04-16T00:24:28.467Z,1003.58
2019-04-16T00:25:28.466Z,1003.50
2019-04-16T00:26:28.448Z,1003.51
2019-04-16T00:27:29.358Z,1003.54
2019-04-16T00:28:30.823Z,1003.62
2019-04-16T00:29:32.613Z,1003.49
2019-04-16T00:30:29.408Z,1003.60
2019-04-16T00:31:28.395Z,1003.48
2019-04-16T00:32:28.383Z,1003.61
2019-04-16T00:33:28.397Z,1003.56
2019-04-16T00:34:28.366Z,1003.49
2019-04-16T00:35:28.353Z,1003.56
2019-04-16T00:36:28.358Z,1003.48
2019-04-16T00:37:28.334Z,1003.43
2019-04-16T00:38:40.003Z,1003.57
2019-04-16T00:39:29.298Z,1003.51
2019-04-16T00:40:28.294Z,1003.46
2019-04-16T00:41:28.292Z,1003.56
2019-04-16T00:42:28.278Z,1003.46
2019-04-16T00:43:28.295Z,1003.51
2019-04-16T00:44:28.330Z,1003.54
2019-04-16T00:45:28.245Z,1003.48
2019-04-16T00:46:28.232Z,1003.46
2019-04-16T00:47:28.224Z,1003.47
2019-04-16T00:48:28.234Z,1003.51
2019-04-16T00:49:28.211Z,1003.53
2019-04-16T00:50:28.191Z,1003.45
2019-04-16T00:51:28.178Z,1003.56
2019-04-16T00:52:28.167Z,1003.53
2019-04-16T00:53:28.194Z,1003.43
2019-04-16T00:54:28.152Z,1003.46
2019-04-16T00:55:28.138Z,1003.47
2019-04-16T00:56:28.126Z,1003.49
2019-04-16T00:57:28.118Z,1003.45
2019-04-16T00:58:28.136Z,1003.47
2019-04-16T00:59:28.094Z,1003.44
2019-04-16T01:00:30.595Z,1003.42
2019-04-16T01:01:28.074Z,1003.39
2019-04-16T01:02:28.062Z,1003.39
2019-04-16T01:03:28.074Z,1003.34
2019-04-16T01:04:28.038Z,1003.34
2019-04-16T01:05:28.030Z,1003.37
2019-04-16T01:06:28.024Z,1003.36
2019-04-16T01:07:28.012Z,1003.40
2019-04-16T01:08:28.084Z,1003.40
2019-04-16T01:09:27.989Z,1003.41
2019-04-16T01:10:27.978Z,1003.38
2019-04-16T01:11:27.968Z,1003.29
2019-04-16T01:12:27.964Z,1003.37
2019-04-16T01:13:28.043Z,1003.30
2019-04-16T01:14:27.938Z,1003.36
2019-04-16T01:15:29.263Z,1003.28
2019-04-16T01:16:30.253Z,1003.22
2019-04-16T01:17:27.905Z,1003.22
2019-04-16T01:18:27.918Z,1003.28
2019-04-16T01:19:27.878Z,1003.26
2019-04-16T01:20:27.871Z,1003.26
2019-04-16T01:21:27.889Z,1003.23
2019-04-16T01:22:27.847Z,1003.26
2019-04-16T01:23:27.862Z,1003.24
2019-04-16T01:24:27.830Z,1003.27
2019-04-16T01:25:27.815Z,1003.20
2019-04-16T01:26:27.814Z,1003.19
2019-04-16T01:27:28.769Z,1003.13
2019-04-16T01:28:29.431Z,1003.22
2019-04-16T01:29:27.784Z,1003.18
2019-04-16T01:30:27.764Z,1003.21
2019-04-16T01:31:27.759Z,1003.26
2019-04-16T01:32:27.739Z,1003.21
2019-04-16T01:33:27.775Z,1003.22
2019-04-16T01:34:27.723Z,1003.22
2019-04-16T01:35:27.718Z,1003.20
2019-04-16T01:36:27.701Z,1003.15
2019-04-16T01:37:27.685Z,1003.09
2019-04-16T01:38:28.602Z,1003.10
2019-04-16T01:39:27.712Z,1003.14
2019-04-16T01:40:27.654Z,1003.09
2019-04-16T01:41:27.656Z,1003.15
2019-04-16T01:42:27.636Z,1003.11
2019-04-16T01:43:27.622Z,1003.11
2019-04-16T01:44:29.466Z,1003.07
2019-04-16T01:45:29.822Z,1003.06
2019-04-16T01:46:27.755Z,1003.11
2019-04-16T01:47:27.583Z,1003.12
2019-04-16T01:48:27.570Z,1003.15
2019-04-16T01:49:27.584Z,1003.08
2019-04-16T01:50:27.550Z,1003.13
2019-04-16T01:51:27.541Z,1003.12
2019-04-16T01:52:27.530Z,1003.11
2019-04-16T01:53:27.517Z,1003.16
2019-04-16T01:54:27.543Z,1003.11
2019-04-16T01:55:27.494Z,1003.11
2019-04-16T01:56:28.846Z,1003.11
2019-04-16T01:57:28.410Z,1003.11
2019-04-16T01:58:27.467Z,1003.11
2019-04-16T01:59:27.483Z,1003.03
2019-04-16T02:00:27.456Z,1003.09
2019-04-16T02:01:27.435Z,1003.09
2019-04-16T02:02:27.432Z,1003.04
2019-04-16T02:03:27.407Z,1003.10
2019-04-16T02:04:27.423Z,1003.07
2019-04-16T02:05:27.388Z,1003.02
2019-04-16T02:06:27.382Z,1003.08
2019-04-16T02:07:27.954Z,1003.07
2019-04-16T02:08:28.290Z,1003.05
2019-04-16T02:09:27.370Z,1003.06
2019-04-16T02:10:27.336Z,1003.04
2019-04-16T02:11:27.323Z,1003.06
2019-04-16T02:12:27.319Z,1003.04
2019-04-16T02:13:27.317Z,1003.07
2019-04-16T02:14:27.325Z,1002.98
2019-04-16T02:15:27.292Z,1003.11
2019-04-16T02:16:27.283Z,1003.02
2019-04-16T02:17:27.755Z,1003.01
2019-04-16T02:18:29.683Z,1003.01
2019-04-16T02:19:27.268Z,1003.04
2019-04-16T02:20:27.229Z,1002.99
2019-04-16T02:21:27.232Z,1003.00
2019-04-16T02:22:27.213Z,1002.96
2019-04-16T02:23:27.199Z,1003.05
2019-04-16T02:24:27.202Z,1002.95
2019-04-16T02:25:27.174Z,1002.92
2019-04-16T02:26:27.169Z,1002.95
2019-04-16T02:27:27.257Z,1002.94
2019-04-16T02:28:28.314Z,1002.96
2019-04-16T02:29:29.784Z,1002.98
2019-04-16T02:30:27.124Z,1002.93
2019-04-16T02:31:27.122Z,1002.89
2019-04-16T02:32:27.105Z,1002.89
2019-04-16T02:33:27.103Z,1002.89
2019-04-16T02:34:27.118Z,1002.98
2019-04-16T02:35:27.079Z,1002.88
2019-04-16T02:36:27.058Z,1002.94
2019-04-16T02:37:27.047Z,1003.00
2019-04-16T02:38:27.042Z,1002.96
2019-04-16T02:39:46.508Z,1002.97
2019-04-16T02:40:28.017Z,1002.92
2019-04-16T02:41:27.010Z,1002.97
2019-04-16T02:42:30.467Z,1002.90
2019-04-16T02:43:26.998Z,1002.90
2019-04-16T02:44:27.019Z,1002.81
2019-04-16T02:45:26.966Z,1002.89
2019-04-16T02:46:30.610Z,1002.90
2019-04-16T02:47:27.939Z,1002.86
2019-04-16T02:48:26.936Z,1002.90
2019-04-16T02:49:26.934Z,1002.94
2019-04-16T02:50:30.951Z,1002.82
2019-04-16T02:51:27.902Z,1002.84
2019-04-16T02:52:26.894Z,1002.83
2019-04-16T02:53:26.878Z,1002.88
2019-04-16T02:54:32.447Z,1002.79
2019-04-16T02:55:27.889Z,1002.83
2019-04-16T02:56:26.847Z,1002.77
2019-04-16T02:57:27.921Z,1002.75
2019-04-16T02:58:33.302Z,1002.77
2019-04-16T02:59:27.816Z,1002.67
2019-04-16T03:00:26.838Z,1002.73
2019-04-16T03:01:26.794Z,1002.80
2019-04-16T03:02:26.784Z,1002.71
2019-04-16T03:03:26.811Z,1002.72
2019-04-16T03:04:27.707Z,1002.72
2019-04-16T03:05:29.117Z,1002.68
2019-04-16T03:06:31.641Z,1002.75
2019-04-16T03:07:27.733Z,1002.69
2019-04-16T03:08:26.725Z,1002.70
2019-04-16T03:09:26.706Z,1002.66
2019-04-16T03:10:26.725Z,1002.60
2019-04-16T03:11:26.689Z,1002.60
2019-04-16T03:12:26.706Z,1002.54
2019-04-16T03:13:26.677Z,1002.52
2019-04-16T03:14:29.705Z,1002.56
2019-04-16T03:15:26.653Z,1002.59
2019-04-16T03:16:26.640Z,1002.54
2019-04-16T03:17:26.652Z,1002.56
2019-04-16T03:18:26.620Z,1002.52
2019-04-16T03:19:26.614Z,1002.54
2019-04-16T03:20:26.606Z,1002.50
2019-04-16T03:21:27.534Z,1002.52
2019-04-16T03:22:26.598Z,1002.48
2019-04-16T03:23:26.567Z,1002.47
2019-04-16T03:24:26.553Z,1002.44
2019-04-16T03:25:26.551Z,1002.44
2019-04-16T03:26:26.538Z,1002.42
2019-04-16T03:27:26.579Z,1002.48
2019-04-16T03:28:27.336Z,1002.47
2019-04-16T03:29:27.488Z,1002.47
2019-04-16T03:30:26.498Z,1002.43
2019-04-16T03:31:26.483Z,1002.41
2019-04-16T03:32:33.611Z,1002.49
2019-04-16T03:33:27.457Z,1002.47
2019-04-16T03:34:26.454Z,1002.38
2019-04-16T03:35:26.889Z,1002.43
2019-04-16T03:36:29.067Z,1002.37
2019-04-16T03:37:26.444Z,1002.39
2019-04-16T03:38:26.411Z,1002.39
2019-04-16T03:39:26.394Z,1002.39
2019-04-16T03:40:26.390Z,1002.36
2019-04-16T03:41:26.375Z,1002.40
2019-04-16T03:42:27.385Z,1002.36
2019-04-16T03:43:26.361Z,1002.29
2019-04-16T03:44:26.347Z,1002.25
2019-04-16T03:45:26.343Z,1002.31
2019-04-16T03:46:26.320Z,1002.25
2019-04-16T03:47:26.337Z,1002.20
2019-04-16T03:48:26.313Z,1002.22
2019-04-16T03:49:27.787Z,1002.25
2019-04-16T03:50:31.016Z,1002.26
2019-04-16T03:51:27.266Z,1002.26
2019-04-16T03:52:26.288Z,1002.33
2019-04-16T03:53:26.256Z,1002.26
2019-04-16T03:54:26.245Z,1002.24
2019-04-16T03:55:26.554Z,1002.26
2019-04-16T03:56:27.548Z,1002.14
2019-04-16T03:57:26.262Z,1002.18
2019-04-16T03:58:26.197Z,1002.20
2019-04-16T03:59:26.268Z,1002.16
2019-04-16T04:00:26.171Z,1002.19
2019-04-16T04:01:26.167Z,1002.13
2019-04-16T04:02:26.151Z,1002.17
2019-04-16T04:03:26.909Z,1002.05
2019-04-16T04:04:28.912Z,1002.12
2019-04-16T04:05:26.132Z,1002.16
2019-04-16T04:06:26.110Z,1002.14
2019-04-16T04:07:26.100Z,1002.15
2019-04-16T04:08:26.118Z,1002.16
2019-04-16T04:09:26.078Z,1002.12
2019-04-16T04:10:30.842Z,1002.07
2019-04-16T04:11:27.059Z,1002.12
2019-04-16T04:12:27.763Z,1002.19
2019-04-16T04:13:26.083Z,1002.16
2019-04-16T04:14:26.031Z,1002.13
2019-04-16T04:15:27.115Z,1002.10
2019-04-16T04:16:26.015Z,1002.01
2019-04-16T04:17:26.004Z,1002.02
2019-04-16T04:18:26.017Z,1002.05
2019-04-16T04:19:25.982Z,1002.08
2019-04-16T04:20:25.968Z,1002.07
2019-04-16T04:21:25.956Z,1002.06
2019-04-16T04:22:26.649Z,1002.07
2019-04-16T04:23:28.675Z,1002.10
2019-04-16T04:24:28.547Z,1002.08
2019-04-16T04:25:26.909Z,1002.03
2019-04-16T04:26:25.898Z,1002.08
2019-04-16T04:27:25.891Z,1002.06
2019-04-16T04:28:25.993Z,1002.12
2019-04-16T04:29:25.879Z,1002.11
2019-04-16T04:30:28.811Z,1002.08
2019-04-16T04:31:25.848Z,1002.13
2019-04-16T04:32:25.840Z,1002.11
2019-04-16T04:33:25.862Z,1002.12
2019-04-16T04:34:25.834Z,1002.12
2019-04-16T04:35:25.806Z,1002.14
2019-04-16T04:36:26.985Z,1002.11
2019-04-16T04:37:30.919Z,1002.14
2019-04-16T04:38:26.803Z,1002.08
2019-04-16T04:39:25.767Z,1002.18
2019-04-16T04:40:25.755Z,1002.22
2019-04-16T04:41:25.743Z,1002.13
2019-04-16T04:42:28.363Z,1002.17
2019-04-16T04:43:25.750Z,1002.10
2019-04-16T04:44:25.710Z,1002.11
2019-04-16T04:45:25.709Z,1002.12
2019-04-16T04:46:25.698Z,1002.16
2019-04-16T04:47:25.679Z,1002.12
2019-04-16T04:48:25.702Z,1002.11
2019-04-16T04:49:30.137Z,1002.10
2019-04-16T04:50:26.649Z,1002.11
2019-04-16T04:51:25.642Z,1002.14
2019-04-16T04:52:27.354Z,1002.10
2019-04-16T04:53:25.645Z,1002.19
2019-04-16T04:54:25.609Z,1002.07
2019-04-16T04:55:26.863Z,1002.04
2019-04-16T04:56:27.939Z,1002.05
2019-04-16T04:57:25.578Z,1002.06
2019-04-16T04:58:25.607Z,1002.12
2019-04-16T04:59:25.556Z,1002.10
2019-04-16T05:00:25.543Z,1002.09
2019-04-16T05:01:25.535Z,1002.10
2019-04-16T05:02:25.523Z,1002.12
2019-04-16T05:03:25.520Z,1002.08
2019-04-16T05:04:25.551Z,1002.16
2019-04-16T05:05:25.926Z,1002.18
2019-04-16T05:06:27.848Z,1002.10
2019-04-16T05:07:25.726Z,1002.14
2019-04-16T05:08:25.464Z,1002.19
2019-04-16T05:09:25.509Z,1002.19
2019-04-16T05:10:25.475Z,1002.16
2019-04-16T05:11:25.430Z,1002.18
2019-04-16T05:12:25.428Z,1002.22
2019-04-16T05:13:25.407Z,1002.23
2019-04-16T05:14:26.097Z,1002.28
2019-04-16T05:15:26.507Z,1002.20
2019-04-16T05:16:25.413Z,1002.21
2019-04-16T05:17:25.369Z,1002.23
2019-04-16T05:18:25.360Z,1002.23
2019-04-16T05:19:25.383Z,1002.22
2019-04-16T05:20:25.332Z,1002.32
2019-04-16T05:21:25.335Z,1002.26
2019-04-16T05:22:25.317Z,1002.30
2019-04-16T05:23:26.092Z,1002.23
2019-04-16T05:24:28.903Z,1002.27
2019-04-16T05:25:25.284Z,1002.21
2019-04-16T05:26:25.273Z,1002.24
2019-04-16T05:27:25.265Z,1002.24
2019-04-16T05:28:25.251Z,1002.30
2019-04-16T05:29:25.266Z,1002.28
2019-04-16T05:30:25.230Z,1002.27
2019-04-16T05:31:26.196Z,1002.26
2019-04-16T05:32:25.992Z,1002.27
2019-04-16T05:33:25.205Z,1002.31
2019-04-16T05:34:37.356Z,1002.26
2019-04-16T05:35:25.176Z,1002.28
2019-04-16T05:36:25.165Z,1002.32
2019-04-16T05:37:25.161Z,1002.30
2019-04-16T05:38:25.140Z,1002.30
2019-04-16T05:39:28.132Z,1002.28
2019-04-16T05:40:27.627Z,1002.27
2019-04-16T05:41:26.112Z,1002.31
2019-04-16T05:42:26.257Z,1002.30
2019-04-16T05:43:30.020Z,1002.31
2019-04-16T05:44:26.105Z,1002.22
2019-04-16T05:45:25.068Z,1002.15
2019-04-16T05:46:25.058Z,1002.23
2019-04-16T05:47:25.187Z,1002.30
2019-04-16T05:48:25.037Z,1002.21
2019-04-16T05:49:26.167Z,1002.24
2019-04-16T05:50:28.754Z,1002.15
2019-04-16T05:51:25.013Z,1002.26
2019-04-16T05:52:25.163Z,1002.08
2019-04-16T05:53:24.985Z,1002.20
2019-04-16T05:54:25.002Z,1002.21
2019-04-16T05:55:24.961Z,1002.27
2019-04-16T05:56:25.260Z,1002.16
2019-04-16T05:57:26.196Z,1002.24
2019-04-16T05:58:27.768Z,1002.21
2019-04-16T05:59:25.943Z,1002.23
2019-04-16T06:00:24.910Z,1002.26
2019-04-16T06:01:24.898Z,1002.20
2019-04-16T06:02:24.890Z,1002.24
2019-04-16T06:03:24.877Z,1002.18
2019-04-16T06:04:25.727Z,1002.23
2019-04-16T06:05:27.909Z,1002.18
2019-04-16T06:06:24.849Z,1002.28
2019-04-16T06:07:24.836Z,1002.28
2019-04-16T06:08:24.827Z,1002.23
2019-04-16T06:09:24.825Z,1002.26
2019-04-16T06:10:24.827Z,1002.17
2019-04-16T06:11:29.252Z,1002.17
2019-04-16T06:12:25.782Z,1002.22
2019-04-16T06:13:24.771Z,1002.20
2019-04-16T06:14:25.952Z,1002.18
2019-04-16T06:15:24.782Z,1002.22
2019-04-16T06:16:25.750Z,1002.22
2019-04-16T06:17:25.878Z,1002.26
2019-04-16T06:18:24.714Z,1002.23
2019-04-16T06:19:24.707Z,1002.25
2019-04-16T06:20:24.716Z,1002.28
2019-04-16T06:21:25.760Z,1002.24
2019-04-16T06:22:28.571Z,1002.26
2019-04-16T06:23:24.713Z,1002.28
2019-04-16T06:24:24.653Z,1002.37
2019-04-16T06:25:24.673Z,1002.26
2019-04-16T06:26:24.632Z,1002.34
2019-04-16T06:27:24.619Z,1002.27
2019-04-16T06:28:24.609Z,1002.27
2019-04-16T06:29:25.379Z,1002.36
2019-04-16T06:30:24.636Z,1002.28
2019-04-16T06:31:24.583Z,1002.37
2019-04-16T06:32:27.736Z,1002.37
2019-04-16T06:33:24.559Z,1002.29
2019-04-16T06:34:24.698Z,1002.31
2019-04-16T06:35:24.795Z,1002.33
2019-04-16T06:36:24.533Z,1002.28
2019-04-16T06:37:27.182Z,1002.31
2019-04-16T06:38:24.501Z,1002.21
2019-04-16T06:39:26.535Z,1002.27
2019-04-16T06:40:25.524Z,1002.20
2019-04-16T06:41:24.480Z,1002.26
2019-04-16T06:42:24.467Z,1002.24
2019-04-16T06:43:26.173Z,1002.28
2019-04-16T06:44:24.436Z,1002.34
2019-04-16T06:45:24.424Z,1002.24
2019-04-16T06:46:24.447Z,1002.30
2019-04-16T06:47:24.415Z,1002.31
2019-04-16T06:48:24.399Z,1002.21
2019-04-16T06:49:24.434Z,1002.28
2019-04-16T06:50:32.116Z,1002.31
2019-04-16T06:51:25.401Z,1002.29
2019-04-16T06:52:24.353Z,1002.21
2019-04-16T06:53:25.102Z,1002.33
2019-04-16T06:54:25.560Z,1002.19
2019-04-16T06:55:24.320Z,1002.20
2019-04-16T06:56:24.343Z,1002.25
2019-04-16T06:57:26.943Z,1002.28
2019-04-16T06:58:27.216Z,1002.29
2019-04-16T06:59:26.578Z,1002.22
2019-04-16T07:00:25.263Z,1002.24
2019-04-16T07:01:24.288Z,1002.30
2019-04-16T07:02:24.999Z,1002.18
2019-04-16T07:03:27.005Z,1002.30
2019-04-16T07:04:24.225Z,1002.28
2019-04-16T07:05:24.335Z,1002.33
2019-04-16T07:06:24.245Z,1002.15
2019-04-16T07:07:24.192Z,1002.27
2019-04-16T07:08:36.832Z,1002.31
2019-04-16T07:09:26.428Z,1002.23
2019-04-16T07:10:25.462Z,1002.27
2019-04-16T07:11:24.151Z,1002.33
2019-04-16T07:12:24.209Z,1002.25
2019-04-16T07:13:24.135Z,1002.24
2019-04-16T07:14:24.127Z,1002.29
2019-04-16T07:15:27.861Z,1002.27
2019-04-16T07:16:27.970Z,1002.29
2019-04-16T07:17:24.113Z,1002.21
2019-04-16T07:18:24.076Z,1002.16
2019-04-16T07:19:24.067Z,1002.33
2019-04-16T07:20:24.056Z,1002.33
2019-04-16T07:21:24.048Z,1002.30
2019-04-16T07:22:24.072Z,1002.30
2019-04-16T07:23:25.546Z,1002.37
2019-04-16T07:24:29.486Z,1002.32
2019-04-16T07:25:27.886Z,1002.28
2019-04-16T07:26:23.992Z,1002.32
2019-04-16T07:27:24.099Z,1002.33
2019-04-16T07:28:25.782Z,1002.29
2019-04-16T07:29:24.024Z,1002.32
2019-04-16T07:30:24.037Z,1002.36
2019-04-16T07:31:33.293Z,1002.16
2019-04-16T07:32:25.147Z,1002.27
2019-04-16T07:33:23.923Z,1002.31
2019-04-16T07:34:23.913Z,1002.28
2019-04-16T07:35:26.959Z,1002.28
2019-04-16T07:36:24.224Z,1002.29
2019-04-16T07:37:23.910Z,1002.29
2019-04-16T07:38:23.888Z,1002.26
2019-04-16T07:39:30.116Z,1002.28
2019-04-16T07:40:24.841Z,1002.26
2019-04-16T07:41:23.830Z,1002.24
2019-04-16T07:42:26.340Z,1002.25
2019-04-16T07:43:23.889Z,1002.23
2019-04-16T07:44:23.805Z,1002.17
2019-04-16T07:45:23.790Z,1002.16
2019-04-16T07:46:23.798Z,1002.21
2019-04-16T07:47:23.764Z,1002.21
2019-04-16T07:48:23.785Z,1002.20
2019-04-16T07:49:26.578Z,1002.23
2019-04-16T07:50:23.741Z,1002.10
2019-04-16T07:51:23.721Z,1002.22
2019-04-16T07:52:23.909Z,1002.24
2019-04-16T07:53:23.757Z,1002.21
2019-04-16T07:54:23.700Z,1002.19
2019-04-16T07:55:26.303Z,1002.27
2019-04-16T07:56:23.676Z,1002.29
2019-04-16T07:57:23.667Z,1002.24
2019-04-16T07:58:23.652Z,1002.28
2019-04-16T07:59:23.698Z,1002.22
2019-04-16T08:00:23.627Z,1002.21
2019-04-16T08:01:23.619Z,1002.16
2019-04-16T08:02:23.614Z,1002.27
2019-04-16T08:03:26.885Z,1002.18
2019-04-16T08:04:29.016Z,1002.14
2019-04-16T08:05:27.658Z,1002.19
2019-04-16T08:06:23.567Z,1002.14
2019-04-16T08:07:23.554Z,1002.23
2019-04-16T08:08:24.767Z,1002.19
2019-04-16T08:09:23.570Z,1002.16
2019-04-16T08:10:23.526Z,1002.15
2019-04-16T08:11:23.520Z,1002.25
2019-04-16T08:12:30.361Z,1002.20
2019-04-16T08:13:24.500Z,1002.27
2019-04-16T08:14:23.510Z,1002.23
2019-04-16T08:15:23.489Z,1002.10
2019-04-16T08:16:23.459Z,1002.12
2019-04-16T08:17:23.453Z,1002.22
2019-04-16T08:18:23.471Z,1002.32
2019-04-16T08:19:36.192Z,1002.20
2019-04-16T08:20:24.417Z,1002.25
2019-04-16T08:21:23.405Z,1002.23
2019-04-16T08:22:23.422Z,1002.23
2019-04-16T08:23:23.406Z,1002.25
2019-04-16T08:24:24.790Z,1002.21
2019-04-16T08:25:23.367Z,1002.22
2019-04-16T08:26:23.356Z,1002.26
2019-04-16T08:27:23.344Z,1002.33
2019-04-16T08:28:23.333Z,1002.29
2019-04-16T08:29:26.334Z,1002.31
2019-04-16T08:30:23.309Z,1002.26
2019-04-16T08:31:23.334Z,1002.30
2019-04-16T08:32:25.725Z,1002.27
2019-04-16T08:33:28.278Z,1002.20
2019-04-16T08:34:24.296Z,1002.20
2019-04-16T08:35:23.264Z,1002.26
2019-04-16T08:36:23.246Z,1002.23
2019-04-16T08:37:23.239Z,1002.13
2019-04-16T08:38:25.874Z,1002.19
2019-04-16T08:39:23.271Z,1002.21
2019-04-16T08:40:23.203Z,1002.24
2019-04-16T08:41:23.204Z,1002.22
2019-04-16T08:42:25.669Z,1002.12
2019-04-16T08:43:23.176Z,1002.18
2019-04-16T08:44:23.191Z,1002.24
2019-04-16T08:45:23.153Z,1002.19
2019-04-16T08:46:23.141Z,1002.18
2019-04-16T08:47:23.135Z,1002.25
2019-04-16T08:48:23.121Z,1002.19
2019-04-16T08:49:23.143Z,1002.13
2019-04-16T08:50:25.895Z,1002.14
2019-04-16T08:51:30.254Z,1002.17
2019-04-16T08:52:24.077Z,1002.23
2019-04-16T08:53:23.141Z,1002.19
2019-04-16T08:54:23.087Z,1002.14
2019-04-16T08:55:23.637Z,1002.17
2019-04-16T08:56:23.036Z,1002.17
2019-04-16T08:57:23.032Z,1002.08
2019-04-16T08:58:23.015Z,1002.10
2019-04-16T08:59:23.032Z,1002.08
2019-04-16T09:00:23.003Z,1002.12
2019-04-16T09:01:23.605Z,1002.09
2019-04-16T09:02:23.566Z,1002.12
2019-04-16T09:03:22.967Z,1002.12
2019-04-16T09:04:22.980Z,1002.04
2019-04-16T09:05:22.944Z,1002.05
2019-04-16T09:06:23.180Z,1002.03
2019-04-16T09:07:22.922Z,1002.08
2019-04-16T09:08:22.913Z,1002.03
2019-04-16T09:09:24.804Z,1002.11
2019-04-16T09:10:24.036Z,1002.15
2019-04-16T09:11:23.876Z,1002.14
2019-04-16T09:12:22.919Z,1001.98
2019-04-16T09:13:22.866Z,1002.04
2019-04-16T09:14:25.668Z,1002.04
2019-04-16T09:15:22.866Z,1002.04
2019-04-16T09:16:22.829Z,1001.96
2019-04-16T09:17:22.815Z,1002.02
2019-04-16T09:18:22.809Z,1002.03
2019-04-16T09:19:22.797Z,1001.97
2019-04-16T09:20:23.408Z,1002.03
2019-04-16T09:21:22.776Z,1002.02
2019-04-16T09:22:22.765Z,1002.01
2019-04-16T09:23:26.669Z,1002.01
2019-04-16T09:24:22.749Z,1002.03
2019-04-16T09:25:22.762Z,1002.01
2019-04-16T09:26:23.903Z,1002.03
2019-04-16T09:27:22.716Z,1002.00
2019-04-16T09:28:25.674Z,1001.98
2019-04-16T09:29:22.698Z,1002.02
2019-04-16T09:30:29.763Z,1001.97
2019-04-16T09:31:23.175Z,1001.99
2019-04-16T09:32:30.643Z,1002.04
2019-04-16T09:33:22.653Z,1002.03
2019-04-16T09:34:22.642Z,1002.01
2019-04-16T09:35:22.660Z,1002.06
2019-04-16T09:36:22.622Z,1002.07
2019-04-16T09:37:25.416Z,1002.08
2019-04-16T09:38:23.602Z,1002.04
2019-04-16T09:39:22.838Z,1002.02
2019-04-16T09:40:22.622Z,1002.07
2019-04-16T09:41:22.579Z,1002.07
2019-04-16T09:42:22.565Z,1002.07
2019-04-16T09:43:22.551Z,1002.09
2019-04-16T09:44:22.541Z,1002.04
2019-04-16T09:45:24.765Z,1002.07
2019-04-16T09:46:48.127Z,1002.10
2019-04-16T09:47:23.509Z,1001.99
2019-04-16T09:48:22.506Z,1002.11
2019-04-16T09:49:22.489Z,1002.03
2019-04-16T09:50:22.654Z,1002.11
2019-04-16T09:51:25.233Z,1002.02
2019-04-16T09:52:23.214Z,1002.14
2019-04-16T09:53:32.612Z,1002.18
2019-04-16T09:54:23.445Z,1002.05
2019-04-16T09:55:22.567Z,1002.02
2019-04-16T09:56:23.379Z,1002.10
2019-04-16T09:57:24.364Z,1002.03
2019-04-16T09:58:22.871Z,1002.05
2019-04-16T09:59:22.386Z,1002.06
2019-04-16T10:00:22.376Z,1002.05
2019-04-16T10:01:22.404Z,1002.05
2019-04-16T10:02:22.352Z,1002.09
2019-04-16T10:03:22.574Z,1002.00
2019-04-16T10:04:22.335Z,1002.04
2019-04-16T10:05:22.325Z,1002.03
2019-04-16T10:06:22.313Z,1002.12
2019-04-16T10:07:22.389Z,1002.03
2019-04-16T10:08:22.316Z,1002.06
2019-04-16T10:09:22.678Z,1001.95
2019-04-16T10:10:24.259Z,1001.88
2019-04-16T10:11:23.265Z,1002.02
2019-04-16T10:12:22.282Z,1001.98
2019-04-16T10:13:30.725Z,1001.97
2019-04-16T10:14:23.231Z,1001.96
2019-04-16T10:15:22.235Z,1001.92
2019-04-16T10:16:22.221Z,1001.92
2019-04-16T10:17:22.223Z,1001.96
2019-04-16T10:18:22.196Z,1001.93
2019-04-16T10:19:22.290Z,1001.95
2019-04-16T10:20:22.196Z,1001.93
2019-04-16T10:21:22.206Z,1001.94
2019-04-16T10:22:22.245Z,1001.91
2019-04-16T10:23:22.167Z,1001.77
2019-04-16T10:24:22.133Z,1001.82
2019-04-16T10:25:22.148Z,1001.72
2019-04-16T10:26:22.123Z,1001.84
2019-04-16T10:27:22.271Z,1001.88
2019-04-16T10:28:22.107Z,1001.83
2019-04-16T10:29:22.098Z,1001.81
2019-04-16T10:30:22.073Z,1001.89
2019-04-16T10:31:22.086Z,1001.82
2019-04-16T10:32:22.085Z,1001.80
2019-04-16T10:33:22.054Z,1001.75
2019-04-16T10:34:22.065Z,1001.74
2019-04-16T10:35:22.027Z,1001.84
2019-04-16T10:36:22.046Z,1001.76
2019-04-16T10:37:22.210Z,1001.75
2019-04-16T10:38:22.001Z,1001.77
2019-04-16T10:39:21.985Z,1001.80
2019-04-16T10:40:22.203Z,1001.80
2019-04-16T10:41:22.051Z,1001.79
2019-04-16T10:42:21.975Z,1001.76
2019-04-16T10:43:22.080Z,1001.71
2019-04-16T10:44:21.954Z,1001.75
2019-04-16T10:45:21.932Z,1001.70
2019-04-16T10:46:21.926Z,1001.74
2019-04-16T10:47:22.009Z,1001.73
2019-04-16T10:48:21.888Z,1001.65
2019-04-16T10:49:21.914Z,1001.69
2019-04-16T10:50:21.883Z,1001.64
2019-04-16T10:51:21.868Z,1001.70
2019-04-16T10:52:22.405Z,1001.61
2019-04-16T10:53:21.869Z,1001.62
2019-04-16T10:54:21.854Z,1001.69
2019-04-16T10:55:21.825Z,1001.60
2019-04-16T10:56:22.187Z,1001.64
2019-04-16T10:57:21.826Z,1001.56
2019-04-16T10:58:21.848Z,1001.61
2019-04-16T10:59:21.781Z,1001.62
2019-04-16T11:00:21.776Z,1001.61
2019-04-16T11:01:21.803Z,1001.57
2019-04-16T11:02:21.749Z,1001.59
2019-04-16T11:03:21.779Z,1001.59
2019-04-16T11:04:21.746Z,1001.60
2019-04-16T11:05:21.733Z,1001.60
2019-04-16T11:06:21.742Z,1001.59
2019-04-16T11:07:21.751Z,1001.56
2019-04-16T11:08:21.740Z,1001.53
2019-04-16T11:09:21.685Z,1001.55
2019-04-16T11:10:21.670Z,1001.64
2019-04-16T11:11:21.662Z,1001.52
2019-04-16T11:12:21.652Z,1001.48
2019-04-16T11:13:21.685Z,1001.51
2019-04-16T11:14:21.629Z,1001.49
2019-04-16T11:15:21.668Z,1001.52
2019-04-16T11:16:21.608Z,1001.49
2019-04-16T11:17:21.603Z,1001.50
2019-04-16T11:18:21.767Z,1001.51
2019-04-16T11:19:21.587Z,1001.52
2019-04-16T11:20:21.575Z,1001.45
2019-04-16T11:21:21.591Z,1001.45
2019-04-16T11:22:21.634Z,1001.45
2019-04-16T11:23:21.554Z,1001.48
2019-04-16T11:24:21.553Z,1001.40
2019-04-16T11:25:21.517Z,1001.53
2019-04-16T11:26:21.513Z,1001.45
2019-04-16T11:27:21.503Z,1001.47
2019-04-16T11:28:21.532Z,1001.46
2019-04-16T11:29:21.551Z,1001.38
2019-04-16T11:30:21.478Z,1001.34
2019-04-16T11:31:21.496Z,1001.36
2019-04-16T11:32:21.449Z,1001.31
2019-04-16T11:33:21.458Z,1001.41
2019-04-16T11:34:21.482Z,1001.32
2019-04-16T11:35:32.256Z,1001.39
2019-04-16T11:36:21.438Z,1001.41
2019-04-16T11:37:21.432Z,1001.36
2019-04-16T11:38:21.398Z,1001.28
2019-04-16T11:39:21.417Z,1001.39
2019-04-16T11:40:21.377Z,1001.36
2019-04-16T11:41:21.365Z,1001.37
2019-04-16T11:42:21.349Z,1001.43
2019-04-16T11:43:21.340Z,1001.43
2019-04-16T11:44:21.355Z,1001.39
2019-04-16T11:45:21.317Z,1001.43
2019-04-16T11:46:21.324Z,1001.33
2019-04-16T11:47:21.343Z,1001.42
2019-04-16T11:48:21.303Z,1001.44
2019-04-16T11:49:21.409Z,1001.34
2019-04-16T11:50:21.296Z,1001.40
2019-04-16T11:51:21.287Z,1001.36
2019-04-16T11:52:21.247Z,1001.42
2019-04-16T11:53:21.244Z,1001.33
2019-04-16T11:54:21.270Z,1001.36
2019-04-16T11:55:21.249Z,1001.37
2019-04-16T11:56:22.653Z,1001.39
2019-04-16T11:57:21.202Z,1001.34
2019-04-16T11:58:21.243Z,1001.34
2019-04-16T11:59:21.257Z,1001.59
2019-04-16T12:00:21.189Z,1001.37
2019-04-16T12:01:23.013Z,1001.37
2019-04-16T12:02:21.171Z,1001.32
2019-04-16T12:03:21.183Z,1001.33
2019-04-16T12:04:21.165Z,1001.31
2019-04-16T12:05:21.135Z,1001.40